sensor_id;sensor_type;location;lat;lon;timestamp;temperature;humidity
19941;DHT22;10132;50.864;5.176;2023-11-19T00:01:54;13.10;99.90
19941;DHT22;10132;50.864;5.176;2023-11-19T00:03:56;13.10;99.90
19941;DHT22;10132;50.864;5.176;2023-11-19T00:05:58;13.10;99.90
19941;DHT22;10132;50.864;5.176;2023-11-19T00:07:59;13.10;99.90
19941;DHT22;10132;50.864;5.176;2023-11-19T00:10:03;13.10;99.90
19941;DHT22;10132;50.864;5.176;2023-11-19T00:12:07;13.00;99.90
19941;DHT22;10132;50.864;5.176;2023-11-19T00:14:09;13.10;99.90
19941;DHT22;10132;50.864;5.176;2023-11-19T00:16:13;13.10;99.90
19941;DHT22;10132;50.864;5.176;2023-11-19T00:18:15;13.10;99.90
19941;DHT22;10132;50.864;5.176;2023-11-19T00:20:18;13.10;99.90
19941;DHT22;10132;50.864;5.176;2023-11-19T00:22:19;13.10;99.90
19941;DHT22;10132;50.864;5.176;2023-11-19T00:24:22;13.10;99.90
19941;DHT22;10132;50.864;5.176;2023-11-19T00:26:24;13.20;99.90
19941;DHT22;10132;50.864;5.176;2023-11-19T00:28:25;13.20;99.90
19941;DHT22;10132;50.864;5.176;2023-11-19T00:30:27;13.20;99.90
19941;DHT22;10132;50.864;5.176;2023-11-19T00:32:29;13.20;99.90
19941;DHT22;10132;50.864;5.176;2023-11-19T00:34:31;13.10;99.90
19941;DHT22;10132;50.864;5.176;2023-11-19T00:36:33;13.20;99.90
19941;DHT22;10132;50.864;5.176;2023-11-19T00:38:35;13.20;99.90
19941;DHT22;10132;50.864;5.176;2023-11-19T00:40:37;13.20;99.90
19941;DHT22;10132;50.864;5.176;2023-11-19T00:42:39;13.20;99.90
19941;DHT22;10132;50.864;5.176;2023-11-19T00:44:40;13.30;99.90
19941;DHT22;10132;50.864;5.176;2023-11-19T00:46:42;13.30;99.90
19941;DHT22;10132;50.864;5.176;2023-11-19T00:48:45;13.30;99.90
19941;DHT22;10132;50.864;5.176;2023-11-19T00:50:47;13.30;99.90
19941;DHT22;10132;50.864;5.176;2023-11-19T00:52:49;13.30;99.90
19941;DHT22;10132;50.864;5.176;2023-11-19T00:54:52;13.30;99.90
19941;DHT22;10132;50.864;5.176;2023-11-19T00:56:54;13.30;99.90
19941;DHT22;10132;50.864;5.176;2023-11-19T00:58:55;13.40;99.90
19941;DHT22;10132;50.864;5.176;2023-11-19T01:00:57;13.40;99.90
19941;DHT22;10132;50.864;5.176;2023-11-19T01:03:00;13.40;99.90
19941;DHT22;10132;50.864;5.176;2023-11-19T01:05:04;13.40;99.90
19941;DHT22;10132;50.864;5.176;2023-11-19T01:07:06;13.40;99.90
19941;DHT22;10132;50.864;5.176;2023-11-19T01:09:08;13.50;99.90
19941;DHT22;10132;50.864;5.176;2023-11-19T01:11:19;13.50;99.90
19941;DHT22;10132;50.864;5.176;2023-11-19T01:13:22;13.50;99.90
19941;DHT22;10132;50.864;5.176;2023-11-19T01:15:25;13.50;99.90
19941;DHT22;10132;50.864;5.176;2023-11-19T01:17:27;13.50;99.90
19941;DHT22;10132;50.864;5.176;2023-11-19T01:19:29;13.60;99.90
19941;DHT22;10132;50.864;5.176;2023-11-19T01:21:32;13.60;99.90
19941;DHT22;10132;50.864;5.176;2023-11-19T01:23:34;13.60;99.90
19941;DHT22;10132;50.864;5.176;2023-11-19T01:25:36;13.60;99.90
19941;DHT22;10132;50.864;5.176;2023-11-19T01:27:39;13.60;99.90
19941;DHT22;10132;50.864;5.176;2023-11-19T01:29:40;13.60;99.90
19941;DHT22;10132;50.864;5.176;2023-11-19T01:31:45;13.60;99.90
19941;DHT22;10132;50.864;5.176;2023-11-19T01:33:47;13.70;99.90
19941;DHT22;10132;50.864;5.176;2023-11-19T01:35:49;13.70;99.90
19941;DHT22;10132;50.864;5.176;2023-11-19T01:37:52;13.70;99.90
19941;DHT22;10132;50.864;5.176;2023-11-19T01:39:54;13.70;99.90
19941;DHT22;10132;50.864;5.176;2023-11-19T01:41:56;13.60;99.90
19941;DHT22;10132;50.864;5.176;2023-11-19T01:43:58;13.60;99.90
19941;DHT22;10132;50.864;5.176;2023-11-19T01:46:00;13.60;99.90
19941;DHT22;10132;50.864;5.176;2023-11-19T01:48:02;13.60;99.90
19941;DHT22;10132;50.864;5.176;2023-11-19T01:50:06;13.60;99.90
19941;DHT22;10132;50.864;5.176;2023-11-19T01:52:09;13.60;99.90
19941;DHT22;10132;50.864;5.176;2023-11-19T01:54:12;13.60;99.90
19941;DHT22;10132;50.864;5.176;2023-11-19T01:56:16;13.70;99.90
19941;DHT22;10132;50.864;5.176;2023-11-19T01:58:17;13.70;99.90
19941;DHT22;10132;50.864;5.176;2023-11-19T02:00:19;13.70;99.90
19941;DHT22;10132;50.864;5.176;2023-11-19T02:02:21;13.70;99.90
19941;DHT22;10132;50.864;5.176;2023-11-19T02:04:24;13.70;99.90
19941;DHT22;10132;50.864;5.176;2023-11-19T02:06:28;13.70;99.90
19941;DHT22;10132;50.864;5.176;2023-11-19T02:08:30;13.70;99.90
19941;DHT22;10132;50.864;5.176;2023-11-19T02:10:34;13.70;99.90
19941;DHT22;10132;50.864;5.176;2023-11-19T02:12:36;13.70;99.90
19941;DHT22;10132;50.864;5.176;2023-11-19T02:14:37;13.70;99.90
19941;DHT22;10132;50.864;5.176;2023-11-19T02:16:39;13.70;99.90
19941;DHT22;10132;50.864;5.176;2023-11-19T02:18:41;13.70;99.90
19941;DHT22;10132;50.864;5.176;2023-11-19T02:20:43;13.70;99.90
19941;DHT22;10132;50.864;5.176;2023-11-19T02:22:44;13.70;99.90
19941;DHT22;10132;50.864;5.176;2023-11-19T02:24:51;13.70;99.90
19941;DHT22;10132;50.864;5.176;2023-11-19T02:26:59;13.70;99.90
19941;DHT22;10132;50.864;5.176;2023-11-19T02:29:04;13.70;99.90
19941;DHT22;10132;50.864;5.176;2023-11-19T02:31:07;13.70;99.90
19941;DHT22;10132;50.864;5.176;2023-11-19T02:33:10;13.70;99.90
19941;DHT22;10132;50.864;5.176;2023-11-19T02:35:12;13.60;99.90
19941;DHT22;10132;50.864;5.176;2023-11-19T02:37:13;13.60;99.90
19941;DHT22;10132;50.864;5.176;2023-11-19T02:39:16;13.60;99.90
19941;DHT22;10132;50.864;5.176;2023-11-19T02:41:22;13.60;99.90
19941;DHT22;10132;50.864;5.176;2023-11-19T02:43:24;13.50;99.90
19941;DHT22;10132;50.864;5.176;2023-11-19T02:45:27;13.50;99.90
19941;DHT22;10132;50.864;5.176;2023-11-19T02:47:31;13.60;99.90
19941;DHT22;10132;50.864;5.176;2023-11-19T02:49:32;13.60;99.90
19941;DHT22;10132;50.864;5.176;2023-11-19T02:51:34;13.60;99.90
19941;DHT22;10132;50.864;5.176;2023-11-19T02:53:36;13.60;99.90
19941;DHT22;10132;50.864;5.176;2023-11-19T02:55:40;13.60;99.90
19941;DHT22;10132;50.864;5.176;2023-11-19T02:57:48;13.50;99.90
19941;DHT22;10132;50.864;5.176;2023-11-19T02:59:50;13.60;99.90
19941;DHT22;10132;50.864;5.176;2023-11-19T03:01:54;13.50;99.90
19941;DHT22;10132;50.864;5.176;2023-11-19T03:03:56;13.50;99.90
19941;DHT22;10132;50.864;5.176;2023-11-19T03:05:58;13.40;99.90
19941;DHT22;10132;50.864;5.176;2023-11-19T03:08:00;13.40;99.90
19941;DHT22;10132;50.864;5.176;2023-11-19T03:10:01;13.40;99.90
19941;DHT22;10132;50.864;5.176;2023-11-19T03:12:07;13.40;99.90
19941;DHT22;10132;50.864;5.176;2023-11-19T03:14:08;13.30;99.90
19941;DHT22;10132;50.864;5.176;2023-11-19T03:16:10;13.30;99.90
19941;DHT22;10132;50.864;5.176;2023-11-19T03:18:14;13.30;99.90
19941;DHT22;10132;50.864;5.176;2023-11-19T03:20:16;13.20;99.90
19941;DHT22;10132;50.864;5.176;2023-11-19T03:22:18;13.20;99.90
19941;DHT22;10132;50.864;5.176;2023-11-19T03:24:21;13.20;99.90
19941;DHT22;10132;50.864;5.176;2023-11-19T03:26:23;13.10;99.90
19941;DHT22;10132;50.864;5.176;2023-11-19T03:28:25;13.20;99.90
19941;DHT22;10132;50.864;5.176;2023-11-19T03:30:27;13.10;99.90
19941;DHT22;10132;50.864;5.176;2023-11-19T03:32:30;13.10;99.90
19941;DHT22;10132;50.864;5.176;2023-11-19T03:34:33;13.10;99.90
19941;DHT22;10132;50.864;5.176;2023-11-19T03:36:35;13.00;99.90
19941;DHT22;10132;50.864;5.176;2023-11-19T03:38:37;13.00;99.90
19941;DHT22;10132;50.864;5.176;2023-11-19T03:40:39;13.00;99.90
19941;DHT22;10132;50.864;5.176;2023-11-19T03:42:41;12.90;99.90
19941;DHT22;10132;50.864;5.176;2023-11-19T03:44:44;12.90;99.90
19941;DHT22;10132;50.864;5.176;2023-11-19T03:46:45;12.90;99.90
19941;DHT22;10132;50.864;5.176;2023-11-19T03:48:48;12.80;99.90
19941;DHT22;10132;50.864;5.176;2023-11-19T03:50:52;12.80;99.90
19941;DHT22;10132;50.864;5.176;2023-11-19T03:52:53;12.80;99.90
19941;DHT22;10132;50.864;5.176;2023-11-19T03:54:55;12.80;99.90
19941;DHT22;10132;50.864;5.176;2023-11-19T03:56:57;12.80;99.90
19941;DHT22;10132;50.864;5.176;2023-11-19T03:59:00;12.80;99.90
19941;DHT22;10132;50.864;5.176;2023-11-19T04:01:02;12.80;99.90
19941;DHT22;10132;50.864;5.176;2023-11-19T04:03:03;12.80;99.90
19941;DHT22;10132;50.864;5.176;2023-11-19T04:05:06;12.90;99.90
19941;DHT22;10132;50.864;5.176;2023-11-19T04:07:09;12.80;99.90
19941;DHT22;10132;50.864;5.176;2023-11-19T04:09:11;12.80;99.90
19941;DHT22;10132;50.864;5.176;2023-11-19T04:11:13;12.80;99.90
19941;DHT22;10132;50.864;5.176;2023-11-19T04:13:15;12.80;99.90
19941;DHT22;10132;50.864;5.176;2023-11-19T04:15:17;12.70;99.90
19941;DHT22;10132;50.864;5.176;2023-11-19T04:17:19;12.60;99.90
19941;DHT22;10132;50.864;5.176;2023-11-19T04:19:21;12.70;99.90
19941;DHT22;10132;50.864;5.176;2023-11-19T04:21:23;12.70;99.90
19941;DHT22;10132;50.864;5.176;2023-11-19T04:23:26;12.60;99.90
19941;DHT22;10132;50.864;5.176;2023-11-19T04:25:27;12.60;99.90
19941;DHT22;10132;50.864;5.176;2023-11-19T04:27:29;12.60;99.90
19941;DHT22;10132;50.864;5.176;2023-11-19T04:29:31;12.60;99.90
19941;DHT22;10132;50.864;5.176;2023-11-19T04:31:35;12.60;99.90
19941;DHT22;10132;50.864;5.176;2023-11-19T04:33:36;12.60;99.90
19941;DHT22;10132;50.864;5.176;2023-11-19T04:35:38;12.60;99.90
19941;DHT22;10132;50.864;5.176;2023-11-19T04:37:41;12.70;99.90
19941;DHT22;10132;50.864;5.176;2023-11-19T04:39:45;12.60;99.90
19941;DHT22;10132;50.864;5.176;2023-11-19T04:41:48;12.60;99.90
19941;DHT22;10132;50.864;5.176;2023-11-19T04:43:50;12.60;99.90
19941;DHT22;10132;50.864;5.176;2023-11-19T04:45:52;12.60;99.90
19941;DHT22;10132;50.864;5.176;2023-11-19T04:47:53;12.60;99.90
19941;DHT22;10132;50.864;5.176;2023-11-19T04:49:55;12.60;99.90
19941;DHT22;10132;50.864;5.176;2023-11-19T04:51:56;12.60;99.90
19941;DHT22;10132;50.864;5.176;2023-11-19T04:53:58;12.60;99.90
19941;DHT22;10132;50.864;5.176;2023-11-19T04:56:07;12.80;99.90
19941;DHT22;10132;50.864;5.176;2023-11-19T04:58:09;12.70;99.90
19941;DHT22;10132;50.864;5.176;2023-11-19T05:00:12;12.70;99.90
19941;DHT22;10132;50.864;5.176;2023-11-19T05:02:14;12.70;99.90
19941;DHT22;10132;50.864;5.176;2023-11-19T05:04:16;12.70;99.90
19941;DHT22;10132;50.864;5.176;2023-11-19T05:06:19;12.80;99.90
19941;DHT22;10132;50.864;5.176;2023-11-19T05:08:20;12.70;99.90
19941;DHT22;10132;50.864;5.176;2023-11-19T05:10:22;12.80;99.90
19941;DHT22;10132;50.864;5.176;2023-11-19T05:12:26;12.70;99.90
19941;DHT22;10132;50.864;5.176;2023-11-19T05:14:28;12.70;99.90
19941;DHT22;10132;50.864;5.176;2023-11-19T05:16:29;12.70;99.90
19941;DHT22;10132;50.864;5.176;2023-11-19T05:18:32;12.70;99.90
19941;DHT22;10132;50.864;5.176;2023-11-19T05:20:34;12.70;99.90
19941;DHT22;10132;50.864;5.176;2023-11-19T05:22:36;12.70;99.90
19941;DHT22;10132;50.864;5.176;2023-11-19T05:24:38;12.70;99.90
19941;DHT22;10132;50.864;5.176;2023-11-19T05:26:41;12.60;99.90
19941;DHT22;10132;50.864;5.176;2023-11-19T05:28:44;12.70;99.90
19941;DHT22;10132;50.864;5.176;2023-11-19T05:30:46;12.70;99.90
19941;DHT22;10132;50.864;5.176;2023-11-19T05:32:48;12.70;99.90
19941;DHT22;10132;50.864;5.176;2023-11-19T05:34:50;12.70;99.90
19941;DHT22;10132;50.864;5.176;2023-11-19T05:36:51;12.80;99.90
19941;DHT22;10132;50.864;5.176;2023-11-19T05:38:53;12.70;99.90
19941;DHT22;10132;50.864;5.176;2023-11-19T05:40:55;12.70;99.90
19941;DHT22;10132;50.864;5.176;2023-11-19T05:42:56;12.70;99.90
19941;DHT22;10132;50.864;5.176;2023-11-19T05:44:59;12.70;99.90
19941;DHT22;10132;50.864;5.176;2023-11-19T05:47:01;12.70;99.90
19941;DHT22;10132;50.864;5.176;2023-11-19T05:49:03;12.70;99.90
19941;DHT22;10132;50.864;5.176;2023-11-19T05:51:05;12.60;99.90
19941;DHT22;10132;50.864;5.176;2023-11-19T05:53:07;12.60;99.90
19941;DHT22;10132;50.864;5.176;2023-11-19T05:55:10;12.60;99.90
19941;DHT22;10132;50.864;5.176;2023-11-19T05:57:13;12.50;99.90
19941;DHT22;10132;50.864;5.176;2023-11-19T05:59:19;12.50;99.90
19941;DHT22;10132;50.864;5.176;2023-11-19T06:01:24;12.50;99.90
19941;DHT22;10132;50.864;5.176;2023-11-19T06:03:27;12.40;99.90
19941;DHT22;10132;50.864;5.176;2023-11-19T06:05:29;12.40;99.90
19941;DHT22;10132;50.864;5.176;2023-11-19T06:07:31;12.40;99.90
19941;DHT22;10132;50.864;5.176;2023-11-19T06:09:33;12.40;99.90
19941;DHT22;10132;50.864;5.176;2023-11-19T06:11:35;12.40;99.90
19941;DHT22;10132;50.864;5.176;2023-11-19T06:13:37;12.40;99.90
19941;DHT22;10132;50.864;5.176;2023-11-19T06:15:41;12.40;99.90
19941;DHT22;10132;50.864;5.176;2023-11-19T06:17:43;12.30;99.90
19941;DHT22;10132;50.864;5.176;2023-11-19T06:19:47;12.20;99.90
19941;DHT22;10132;50.864;5.176;2023-11-19T06:21:49;12.20;99.90
19941;DHT22;10132;50.864;5.176;2023-11-19T06:23:50;12.10;99.90
19941;DHT22;10132;50.864;5.176;2023-11-19T06:25:53;12.10;99.90
19941;DHT22;10132;50.864;5.176;2023-11-19T06:27:56;12.00;99.90
19941;DHT22;10132;50.864;5.176;2023-11-19T06:29:58;12.00;99.90
19941;DHT22;10132;50.864;5.176;2023-11-19T06:32:00;12.00;99.90
19941;DHT22;10132;50.864;5.176;2023-11-19T06:34:04;12.00;99.90
19941;DHT22;10132;50.864;5.176;2023-11-19T06:36:07;12.00;99.90
19941;DHT22;10132;50.864;5.176;2023-11-19T06:38:10;11.90;99.90
19941;DHT22;10132;50.864;5.176;2023-11-19T06:40:12;11.90;99.90
19941;DHT22;10132;50.864;5.176;2023-11-19T06:42:16;12.00;99.90
19941;DHT22;10132;50.864;5.176;2023-11-19T06:44:18;12.00;99.90
19941;DHT22;10132;50.864;5.176;2023-11-19T06:46:20;12.00;99.90
19941;DHT22;10132;50.864;5.176;2023-11-19T06:48:21;12.00;99.90
19941;DHT22;10132;50.864;5.176;2023-11-19T06:50:24;12.00;99.90
19941;DHT22;10132;50.864;5.176;2023-11-19T06:52:26;12.00;99.90
19941;DHT22;10132;50.864;5.176;2023-11-19T06:54:28;11.90;99.90
19941;DHT22;10132;50.864;5.176;2023-11-19T06:56:30;11.90;99.90
19941;DHT22;10132;50.864;5.176;2023-11-19T06:58:32;11.90;99.90
19941;DHT22;10132;50.864;5.176;2023-11-19T07:00:35;11.90;99.90
19941;DHT22;10132;50.864;5.176;2023-11-19T07:02:37;11.90;99.90
19941;DHT22;10132;50.864;5.176;2023-11-19T07:04:40;11.80;99.90
19941;DHT22;10132;50.864;5.176;2023-11-19T07:06:42;11.80;99.90
19941;DHT22;10132;50.864;5.176;2023-11-19T07:08:44;11.80;99.90
19941;DHT22;10132;50.864;5.176;2023-11-19T07:10:45;11.70;99.90
19941;DHT22;10132;50.864;5.176;2023-11-19T07:12:49;11.70;99.90
19941;DHT22;10132;50.864;5.176;2023-11-19T07:14:51;11.70;99.90
19941;DHT22;10132;50.864;5.176;2023-11-19T07:16:52;11.80;99.90
19941;DHT22;10132;50.864;5.176;2023-11-19T07:18:54;11.70;99.90
19941;DHT22;10132;50.864;5.176;2023-11-19T07:20:56;11.80;99.90
19941;DHT22;10132;50.864;5.176;2023-11-19T07:22:59;11.80;99.90
19941;DHT22;10132;50.864;5.176;2023-11-19T07:25:01;11.80;99.90
19941;DHT22;10132;50.864;5.176;2023-11-19T07:27:03;11.80;99.90
19941;DHT22;10132;50.864;5.176;2023-11-19T07:29:05;11.80;99.90
19941;DHT22;10132;50.864;5.176;2023-11-19T07:31:08;11.80;99.90
19941;DHT22;10132;50.864;5.176;2023-11-19T07:33:10;11.80;99.90
19941;DHT22;10132;50.864;5.176;2023-11-19T07:35:12;11.80;99.90
19941;DHT22;10132;50.864;5.176;2023-11-19T07:37:14;11.80;99.90
19941;DHT22;10132;50.864;5.176;2023-11-19T07:39:18;11.80;99.90
19941;DHT22;10132;50.864;5.176;2023-11-19T07:41:21;11.80;99.90
19941;DHT22;10132;50.864;5.176;2023-11-19T07:43:22;11.90;99.90
19941;DHT22;10132;50.864;5.176;2023-11-19T07:45:24;11.90;99.90
19941;DHT22;10132;50.864;5.176;2023-11-19T07:47:28;11.90;99.90
19941;DHT22;10132;50.864;5.176;2023-11-19T07:49:30;11.90;99.90
19941;DHT22;10132;50.864;5.176;2023-11-19T07:51:32;11.90;99.90
19941;DHT22;10132;50.864;5.176;2023-11-19T07:53:34;11.90;99.90
19941;DHT22;10132;50.864;5.176;2023-11-19T07:55:40;11.90;99.90
19941;DHT22;10132;50.864;5.176;2023-11-19T07:57:41;11.90;99.90
19941;DHT22;10132;50.864;5.176;2023-11-19T07:59:43;12.00;99.90
19941;DHT22;10132;50.864;5.176;2023-11-19T08:01:44;12.00;99.90
19941;DHT22;10132;50.864;5.176;2023-11-19T08:03:46;12.10;99.90
19941;DHT22;10132;50.864;5.176;2023-11-19T08:05:48;12.10;99.90
19941;DHT22;10132;50.864;5.176;2023-11-19T08:07:49;12.10;99.90
19941;DHT22;10132;50.864;5.176;2023-11-19T08:09:52;12.10;99.90
19941;DHT22;10132;50.864;5.176;2023-11-19T08:11:55;12.10;99.90
19941;DHT22;10132;50.864;5.176;2023-11-19T08:13:57;12.10;99.90
19941;DHT22;10132;50.864;5.176;2023-11-19T08:15:59;12.20;99.90
19941;DHT22;10132;50.864;5.176;2023-11-19T08:18:01;12.20;99.90
19941;DHT22;10132;50.864;5.176;2023-11-19T08:20:04;12.20;99.90
19941;DHT22;10132;50.864;5.176;2023-11-19T08:22:10;12.30;99.90
19941;DHT22;10132;50.864;5.176;2023-11-19T08:24:12;12.30;99.90
19941;DHT22;10132;50.864;5.176;2023-11-19T08:26:15;12.40;99.90
19941;DHT22;10132;50.864;5.176;2023-11-19T08:28:19;12.40;99.90
19941;DHT22;10132;50.864;5.176;2023-11-19T08:30:21;12.40;99.90
19941;DHT22;10132;50.864;5.176;2023-11-19T08:32:23;12.50;99.90
19941;DHT22;10132;50.864;5.176;2023-11-19T08:34:25;12.50;99.90
19941;DHT22;10132;50.864;5.176;2023-11-19T08:36:27;12.50;99.90
19941;DHT22;10132;50.864;5.176;2023-11-19T08:38:29;12.50;99.90
19941;DHT22;10132;50.864;5.176;2023-11-19T08:40:30;12.60;99.90
19941;DHT22;10132;50.864;5.176;2023-11-19T08:42:32;12.60;99.90
19941;DHT22;10132;50.864;5.176;2023-11-19T08:44:34;12.60;99.90
19941;DHT22;10132;50.864;5.176;2023-11-19T08:46:36;12.60;99.90
19941;DHT22;10132;50.864;5.176;2023-11-19T08:48:38;12.60;99.90
19941;DHT22;10132;50.864;5.176;2023-11-19T08:50:40;12.70;99.90
19941;DHT22;10132;50.864;5.176;2023-11-19T08:52:42;12.70;99.90
19941;DHT22;10132;50.864;5.176;2023-11-19T08:54:45;12.70;99.90
19941;DHT22;10132;50.864;5.176;2023-11-19T08:56:46;12.70;99.90
19941;DHT22;10132;50.864;5.176;2023-11-19T08:58:47;12.80;99.90
19941;DHT22;10132;50.864;5.176;2023-11-19T09:00:51;12.80;99.90
19941;DHT22;10132;50.864;5.176;2023-11-19T09:02:53;12.90;99.90
19941;DHT22;10132;50.864;5.176;2023-11-19T09:04:55;12.90;99.90
19941;DHT22;10132;50.864;5.176;2023-11-19T09:06:57;13.00;99.90
19941;DHT22;10132;50.864;5.176;2023-11-19T09:08:59;13.00;99.90
19941;DHT22;10132;50.864;5.176;2023-11-19T09:11:07;13.10;99.90
19941;DHT22;10132;50.864;5.176;2023-11-19T09:13:09;13.20;99.90
19941;DHT22;10132;50.864;5.176;2023-11-19T09:15:11;13.30;99.90
19941;DHT22;10132;50.864;5.176;2023-11-19T09:17:15;13.20;99.90
19941;DHT22;10132;50.864;5.176;2023-11-19T09:19:18;13.20;99.90
19941;DHT22;10132;50.864;5.176;2023-11-19T09:21:21;13.40;99.90
19941;DHT22;10132;50.864;5.176;2023-11-19T09:23:23;13.30;99.90
19941;DHT22;10132;50.864;5.176;2023-11-19T09:25:25;13.10;99.90
19941;DHT22;10132;50.864;5.176;2023-11-19T09:27:27;13.10;99.90
19941;DHT22;10132;50.864;5.176;2023-11-19T09:29:31;13.00;99.90
19941;DHT22;10132;50.864;5.176;2023-11-19T09:31:34;12.90;99.90
19941;DHT22;10132;50.864;5.176;2023-11-19T09:33:36;13.10;99.90
19941;DHT22;10132;50.864;5.176;2023-11-19T09:35:38;13.10;99.90
19941;DHT22;10132;50.864;5.176;2023-11-19T09:37:40;13.00;99.90
19941;DHT22;10132;50.864;5.176;2023-11-19T09:39:42;12.90;99.90
19941;DHT22;10132;50.864;5.176;2023-11-19T09:41:44;12.80;99.90
19941;DHT22;10132;50.864;5.176;2023-11-19T09:43:47;12.80;99.90
19941;DHT22;10132;50.864;5.176;2023-11-19T09:45:50;12.80;99.90
19941;DHT22;10132;50.864;5.176;2023-11-19T09:47:52;12.90;99.90
19941;DHT22;10132;50.864;5.176;2023-11-19T09:49:55;13.00;99.90
19941;DHT22;10132;50.864;5.176;2023-11-19T09:51:57;13.10;99.90
19941;DHT22;10132;50.864;5.176;2023-11-19T09:54:00;13.10;99.90
19941;DHT22;10132;50.864;5.176;2023-11-19T09:56:02;13.20;99.90
19941;DHT22;10132;50.864;5.176;2023-11-19T09:58:05;13.20;99.90
19941;DHT22;10132;50.864;5.176;2023-11-19T10:00:08;13.20;99.90
19941;DHT22;10132;50.864;5.176;2023-11-19T10:02:12;13.20;99.90
19941;DHT22;10132;50.864;5.176;2023-11-19T10:04:15;13.10;99.90
19941;DHT22;10132;50.864;5.176;2023-11-19T10:06:20;13.10;99.90
19941;DHT22;10132;50.864;5.176;2023-11-19T10:08:22;13.20;99.90
19941;DHT22;10132;50.864;5.176;2023-11-19T10:10:24;13.30;99.90
19941;DHT22;10132;50.864;5.176;2023-11-19T10:12:26;13.20;99.90
19941;DHT22;10132;50.864;5.176;2023-11-19T10:14:28;13.30;99.90
19941;DHT22;10132;50.864;5.176;2023-11-19T10:16:34;13.30;99.90
19941;DHT22;10132;50.864;5.176;2023-11-19T10:18:36;13.40;99.90
19941;DHT22;10132;50.864;5.176;2023-11-19T10:20:41;13.50;99.90
19941;DHT22;10132;50.864;5.176;2023-11-19T10:22:44;13.40;99.90
19941;DHT22;10132;50.864;5.176;2023-11-19T10:24:47;13.50;99.90
19941;DHT22;10132;50.864;5.176;2023-11-19T10:26:48;13.50;99.90
19941;DHT22;10132;50.864;5.176;2023-11-19T10:28:50;13.60;99.90
19941;DHT22;10132;50.864;5.176;2023-11-19T10:30:56;13.70;99.90
19941;DHT22;10132;50.864;5.176;2023-11-19T10:33:05;13.70;99.90
19941;DHT22;10132;50.864;5.176;2023-11-19T10:35:07;13.70;99.90
19941;DHT22;10132;50.864;5.176;2023-11-19T10:37:27;13.90;99.90
19941;DHT22;10132;50.864;5.176;2023-11-19T10:39:51;14.20;99.90
19941;DHT22;10132;50.864;5.176;2023-11-19T10:41:55;14.30;99.90
19941;DHT22;10132;50.864;5.176;2023-11-19T10:43:57;14.30;99.90
19941;DHT22;10132;50.864;5.176;2023-11-19T10:46:09;14.20;99.90
19941;DHT22;10132;50.864;5.176;2023-11-19T10:48:12;14.10;99.90
19941;DHT22;10132;50.864;5.176;2023-11-19T10:50:14;14.20;99.90
19941;DHT22;10132;50.864;5.176;2023-11-19T10:52:18;14.10;99.90
19941;DHT22;10132;50.864;5.176;2023-11-19T10:54:21;14.30;99.90
19941;DHT22;10132;50.864;5.176;2023-11-19T10:56:25;14.50;99.90
19941;DHT22;10132;50.864;5.176;2023-11-19T10:58:32;14.40;99.90
19941;DHT22;10132;50.864;5.176;2023-11-19T11:00:39;14.20;99.90
19941;DHT22;10132;50.864;5.176;2023-11-19T11:02:49;14.20;99.90
19941;DHT22;10132;50.864;5.176;2023-11-19T11:04:52;14.10;99.90
19941;DHT22;10132;50.864;5.176;2023-11-19T11:06:55;14.10;99.90
19941;DHT22;10132;50.864;5.176;2023-11-19T11:08:59;14.30;99.90
19941;DHT22;10132;50.864;5.176;2023-11-19T11:11:02;14.20;99.90
19941;DHT22;10132;50.864;5.176;2023-11-19T11:13:06;14.20;99.90
19941;DHT22;10132;50.864;5.176;2023-11-19T11:15:11;14.20;99.90
19941;DHT22;10132;50.864;5.176;2023-11-19T11:17:17;14.20;99.90
19941;DHT22;10132;50.864;5.176;2023-11-19T11:19:20;14.10;99.90
19941;DHT22;10132;50.864;5.176;2023-11-19T11:21:24;14.00;99.90
19941;DHT22;10132;50.864;5.176;2023-11-19T11:23:48;14.00;99.90
19941;DHT22;10132;50.864;5.176;2023-11-19T11:26:03;14.00;99.90
19941;DHT22;10132;50.864;5.176;2023-11-19T11:28:21;14.30;99.90
19941;DHT22;10132;50.864;5.176;2023-11-19T11:30:35;14.20;99.90
19941;DHT22;10132;50.864;5.176;2023-11-19T11:32:45;14.10;99.90
19941;DHT22;10132;50.864;5.176;2023-11-19T11:35:08;14.00;99.90
19941;DHT22;10132;50.864;5.176;2023-11-19T11:37:18;14.00;99.90
19941;DHT22;10132;50.864;5.176;2023-11-19T11:39:22;13.80;99.90
19941;DHT22;10132;50.864;5.176;2023-11-19T11:41:25;13.80;99.90
19941;DHT22;10132;50.864;5.176;2023-11-19T11:43:48;13.90;99.90
19941;DHT22;10132;50.864;5.176;2023-11-19T11:45:51;13.90;99.90
19941;DHT22;10132;50.864;5.176;2023-11-19T11:48:20;14.00;99.90
19941;DHT22;10132;50.864;5.176;2023-11-19T11:50:23;13.80;99.90
19941;DHT22;10132;50.864;5.176;2023-11-19T11:52:25;13.70;99.90
19941;DHT22;10132;50.864;5.176;2023-11-19T11:54:28;13.70;99.90
19941;DHT22;10132;50.864;5.176;2023-11-19T11:56:33;13.70;99.90
19941;DHT22;10132;50.864;5.176;2023-11-19T11:58:36;13.60;99.90
19941;DHT22;10132;50.864;5.176;2023-11-19T12:00:41;13.60;99.90
19941;DHT22;10132;50.864;5.176;2023-11-19T12:02:44;13.60;99.90
19941;DHT22;10132;50.864;5.176;2023-11-19T12:04:50;13.60;99.90
19941;DHT22;10132;50.864;5.176;2023-11-19T12:07:03;13.70;99.90
19941;DHT22;10132;50.864;5.176;2023-11-19T12:09:05;13.80;99.90
19941;DHT22;10132;50.864;5.176;2023-11-19T12:11:08;14.00;99.90
19941;DHT22;10132;50.864;5.176;2023-11-19T12:13:10;14.20;99.90
19941;DHT22;10132;50.864;5.176;2023-11-19T12:15:12;14.50;99.90
19941;DHT22;10132;50.864;5.176;2023-11-19T12:19:53;14.50;99.90
19941;DHT22;10132;50.864;5.176;2023-11-19T12:21:59;14.50;99.90
19941;DHT22;10132;50.864;5.176;2023-11-19T12:24:02;14.70;99.90
19941;DHT22;10132;50.864;5.176;2023-11-19T12:26:08;15.00;99.90
19941;DHT22;10132;50.864;5.176;2023-11-19T12:28:21;14.80;99.90
19941;DHT22;10132;50.864;5.176;2023-11-19T12:30:25;14.70;99.90
19941;DHT22;10132;50.864;5.176;2023-11-19T12:32:37;14.90;99.90
19941;DHT22;10132;50.864;5.176;2023-11-19T12:34:39;15.00;99.90
19941;DHT22;10132;50.864;5.176;2023-11-19T12:36:43;15.10;99.90
19941;DHT22;10132;50.864;5.176;2023-11-19T12:38:46;15.10;99.90
19941;DHT22;10132;50.864;5.176;2023-11-19T12:41:02;14.90;99.90
19941;DHT22;10132;50.864;5.176;2023-11-19T12:43:04;14.80;99.90
19941;DHT22;10132;50.864;5.176;2023-11-19T12:45:07;14.90;99.90
19941;DHT22;10132;50.864;5.176;2023-11-19T12:47:09;15.00;99.90
19941;DHT22;10132;50.864;5.176;2023-11-19T12:49:12;15.10;99.90
19941;DHT22;10132;50.864;5.176;2023-11-19T12:51:13;15.00;99.90
19941;DHT22;10132;50.864;5.176;2023-11-19T12:53:16;15.00;99.90
19941;DHT22;10132;50.864;5.176;2023-11-19T12:55:26;14.60;99.90
19941;DHT22;10132;50.864;5.176;2023-11-19T12:57:38;14.30;99.90
19941;DHT22;10132;50.864;5.176;2023-11-19T12:59:40;14.20;99.90
19941;DHT22;10132;50.864;5.176;2023-11-19T13:01:54;14.10;99.90